createdAt,value
2019-02-25T00:01:47.410Z,64.60
2019-02-25T00:04:17.143Z,65.00
2019-02-25T00:06:46.959Z,65.60
2019-02-25T00:09:16.759Z,65.70
2019-02-25T00:11:46.489Z,66.00
2019-02-25T00:14:16.315Z,66.30
2019-02-25T00:16:46.038Z,66.50
2019-02-25T00:19:15.739Z,66.50
2019-02-25T00:21:46.663Z,66.70
2019-02-25T00:24:16.338Z,66.70
2019-02-25T00:26:46.074Z,66.20
2019-02-25T00:29:15.774Z,65.50
2019-02-25T00:31:45.543Z,65.20
2019-02-25T00:34:16.056Z,65.30
2019-02-25T00:36:45.724Z,65.60
2019-02-25T00:39:15.403Z,66.00
2019-02-25T00:41:45.138Z,66.20
2019-02-25T00:44:14.844Z,66.40
2019-02-25T00:46:44.624Z,67.00
2019-02-25T00:49:14.327Z,67.50
2019-02-25T00:51:44.122Z,67.80
2019-02-25T00:54:13.838Z,68.00
2019-02-25T00:56:43.518Z,68.20
2019-02-25T00:59:13.172Z,68.40
2019-02-25T01:01:42.870Z,68.40
2019-02-25T01:04:13.716Z,68.10
2019-02-25T01:06:43.523Z,68.10
2019-02-25T01:09:13.292Z,68.00
2019-02-25T01:11:42.971Z,68.20
2019-02-25T01:14:12.618Z,68.30
2019-02-25T01:16:42.323Z,68.00
2019-02-25T01:19:12.060Z,68.10
2019-02-25T01:21:41.890Z,68.40
2019-02-25T01:24:11.584Z,68.50
2019-02-25T01:26:41.261Z,68.40
2019-02-25T01:29:11.586Z,68.60
2019-02-25T01:31:41.291Z,69.10
2019-02-25T01:34:11.035Z,70.20
2019-02-25T01:36:40.887Z,69.20
2019-02-25T01:39:10.622Z,69.30
2019-02-25T01:41:40.414Z,69.20
2019-02-25T01:44:10.094Z,69.30
2019-02-25T01:46:39.785Z,69.60
2019-02-25T01:49:09.459Z,69.30
2019-02-25T01:51:39.212Z,69.10
2019-02-25T01:54:08.951Z,68.90
2019-02-25T01:56:38.654Z,68.80
2019-02-25T01:59:08.330Z,68.70
2019-02-25T02:01:38.119Z,68.80
2019-02-25T02:04:07.844Z,69.30
2019-02-25T02:06:37.611Z,69.60
2019-02-25T02:09:09.618Z,69.50
2019-02-25T02:11:39.511Z,69.60
2019-02-25T02:14:09.253Z,69.70
2019-02-25T02:16:38.975Z,69.80
2019-02-25T02:19:08.744Z,69.60
2019-02-25T02:21:38.506Z,69.70
2019-02-25T02:24:08.150Z,69.20
2019-02-25T02:26:37.834Z,69.30
2019-02-25T02:29:07.520Z,69.00
2019-02-25T02:31:38.363Z,68.90
2019-02-25T02:34:08.129Z,69.00
2019-02-25T02:36:37.871Z,69.00
2019-02-25T02:39:07.855Z,68.80
2019-02-25T02:42:21.651Z,68.50
2019-02-25T02:44:59.786Z,68.60
2019-02-25T02:47:50.722Z,69.50
2019-02-25T02:50:22.728Z,68.60
2019-02-25T02:52:53.471Z,68.60
2019-02-25T02:55:23.209Z,68.30
2019-02-25T02:57:52.960Z,68.10
2019-02-25T03:00:22.702Z,68.10
2019-02-25T03:02:52.497Z,68.10
2019-02-25T03:05:22.396Z,68.20
2019-02-25T03:07:52.173Z,68.30
2019-02-25T03:10:21.954Z,68.50
2019-02-25T03:12:51.672Z,68.40
2019-02-25T03:15:22.193Z,68.50
2019-02-25T03:17:51.967Z,68.70
2019-02-25T03:20:22.746Z,68.80
2019-02-25T03:22:52.537Z,69.00
2019-02-25T03:25:23.267Z,69.30
2019-02-25T03:27:52.987Z,69.50
2019-02-25T03:30:22.827Z,69.80
2019-02-25T03:32:52.550Z,70.80
2019-02-25T03:35:22.286Z,70.80
2019-02-25T03:37:51.965Z,69.90
2019-02-25T03:40:21.798Z,71.00
2019-02-25T03:42:51.867Z,70.40
2019-02-25T03:45:21.637Z,71.00
2019-02-25T03:48:10.646Z,71.00
2019-02-25T03:50:40.362Z,71.40
2019-02-25T03:53:10.057Z,71.30
2019-02-25T03:55:39.890Z,71.40
2019-02-25T03:58:09.761Z,71.10
2019-02-25T04:00:39.528Z,70.90
2019-02-25T04:03:09.546Z,70.90
2019-02-25T04:05:39.310Z,71.50
2019-02-25T04:08:08.991Z,70.10
2019-02-25T04:10:39.927Z,69.90
2019-02-25T04:13:10.008Z,69.90
2019-02-25T04:15:42.557Z,70.10
2019-02-25T04:18:12.240Z,70.40
2019-02-25T04:20:42.848Z,70.70
2019-02-25T04:23:12.550Z,71.30
2019-02-25T04:25:42.775Z,70.80
2019-02-25T04:28:12.451Z,70.80
2019-02-25T04:30:42.218Z,70.70
2019-02-25T04:33:12.061Z,70.70
2019-02-25T04:35:41.822Z,70.40
2019-02-25T04:38:11.638Z,70.30
2019-02-25T04:40:41.529Z,70.50
2019-02-25T04:43:11.236Z,70.30
2019-02-25T04:45:41.025Z,70.00
2019-02-25T04:48:10.736Z,69.90
2019-02-25T04:50:40.591Z,70.00
2019-02-25T04:53:10.350Z,69.60
2019-02-25T04:55:40.055Z,69.80
2019-02-25T04:58:09.906Z,69.90
2019-02-25T05:00:39.782Z,70.10
2019-02-25T05:03:09.551Z,70.40
2019-02-25T05:05:39.270Z,70.40
2019-02-25T05:08:09.105Z,70.30
2019-02-25T05:10:38.895Z,70.40
2019-02-25T05:13:08.705Z,70.80
2019-02-25T05:15:38.550Z,71.40
2019-02-25T05:18:08.397Z,71.90
2019-02-25T05:20:38.096Z,72.40
2019-02-25T05:23:07.859Z,72.50
2019-02-25T05:25:37.713Z,72.40
2019-02-25T05:28:07.454Z,72.50
2019-02-25T05:30:37.200Z,73.40
2019-02-25T05:33:07.136Z,72.50
2019-02-25T05:35:37.007Z,73.60
2019-02-25T05:38:06.773Z,72.60
2019-02-25T05:40:36.572Z,72.80
2019-02-25T05:43:06.352Z,73.00
2019-02-25T05:45:36.143Z,73.00
2019-02-25T05:48:05.887Z,73.00
2019-02-25T05:50:35.643Z,73.20
2019-02-25T05:53:05.478Z,73.40
2019-02-25T05:55:35.172Z,73.40
2019-02-25T05:58:05.038Z,73.30
2019-02-25T06:00:35.304Z,73.40
2019-02-25T06:03:05.016Z,73.40
2019-02-25T06:05:34.760Z,73.40
2019-02-25T06:08:04.524Z,73.20
2019-02-25T06:10:34.303Z,73.40
2019-02-25T06:13:04.066Z,73.10
2019-02-25T06:15:33.793Z,72.40
2019-02-25T06:18:03.687Z,72.20
2019-02-25T06:20:33.514Z,71.90
2019-02-25T06:23:03.290Z,72.10
2019-02-25T06:25:33.060Z,72.10
2019-02-25T06:28:03.644Z,72.00
2019-02-25T06:30:33.551Z,71.90
2019-02-25T06:33:03.286Z,72.10
2019-02-25T06:35:33.124Z,72.60
2019-02-25T06:38:02.903Z,72.80
2019-02-25T06:40:32.775Z,73.10
2019-02-25T06:43:02.465Z,72.90
2019-02-25T06:45:32.342Z,72.90
2019-02-25T06:48:03.086Z,73.10
2019-02-25T06:50:32.902Z,73.00
2019-02-25T06:53:02.686Z,72.80
2019-02-25T06:55:33.838Z,73.10
2019-02-25T06:58:03.541Z,73.10
2019-02-25T07:00:33.275Z,73.00
2019-02-25T07:03:03.166Z,73.50
2019-02-25T07:06:10.331Z,72.80
2019-02-25T07:08:47.391Z,72.70
2019-02-25T07:11:31.721Z,72.40
2019-02-25T07:14:38.787Z,72.20
2019-02-25T07:17:30.743Z,72.00
2019-02-25T07:20:19.613Z,71.60
2019-02-25T07:23:00.954Z,71.10
2019-02-25T07:25:52.856Z,70.30
2019-02-25T07:28:45.163Z,69.80
2019-02-25T07:31:32.816Z,68.70
2019-02-25T07:34:15.192Z,68.00
2019-02-25T07:37:13.147Z,67.60
2019-02-25T07:40:00.623Z,67.40
2019-02-25T07:42:57.249Z,67.10
2019-02-25T07:45:46.101Z,66.60
2019-02-25T07:48:37.837Z,66.40
2019-02-25T07:51:35.976Z,65.90
2019-02-25T07:54:15.010Z,65.30
2019-02-25T07:57:07.343Z,64.80
2019-02-25T08:00:04.947Z,63.70
2019-02-25T08:02:56.957Z,63.20
2019-02-25T08:05:58.110Z,62.20
2019-02-25T08:08:37.579Z,61.60
2019-02-25T08:11:35.252Z,60.80
2019-02-25T08:14:14.307Z,60.70
2019-02-25T08:17:02.035Z,60.00
2019-02-25T08:19:49.578Z,59.80
2019-02-25T08:22:41.170Z,59.20
2019-02-25T08:25:29.010Z,58.70
2019-02-25T08:28:06.646Z,58.20
2019-02-25T08:30:55.346Z,57.80
2019-02-25T08:33:43.959Z,57.30
2019-02-25T08:37:02.363Z,56.60
2019-02-25T08:39:50.805Z,56.40
2019-02-25T08:42:31.935Z,56.10
2019-02-25T08:45:07.630Z,55.80
2019-02-25T08:47:42.945Z,55.60
2019-02-25T08:50:13.874Z,55.20
2019-02-25T08:52:43.666Z,54.20
2019-02-25T08:55:13.455Z,50.90
2019-02-25T08:57:43.254Z,45.40
2019-02-25T09:00:13.758Z,40.00
2019-02-25T09:02:43.610Z,35.80
2019-02-25T09:05:13.991Z,32.50
2019-02-25T09:07:43.935Z,30.50
2019-02-25T09:10:13.743Z,29.40
2019-02-25T09:12:43.589Z,28.20
2019-02-25T09:15:13.437Z,27.20
2019-02-25T09:17:45.744Z,26.60
2019-02-25T09:20:16.027Z,27.00
2019-02-25T09:22:45.978Z,27.10
2019-02-25T09:25:15.743Z,27.60
2019-02-25T09:27:45.619Z,27.30
2019-02-25T09:30:16.677Z,26.90
2019-02-25T09:32:46.542Z,27.10
2019-02-25T09:35:16.343Z,27.20
2019-02-25T09:37:46.265Z,26.90
2019-02-25T09:40:17.180Z,25.80
2019-02-25T09:42:47.289Z,25.50
2019-02-25T09:45:17.089Z,25.90
2019-02-25T09:47:47.048Z,26.20
2019-02-25T09:50:16.978Z,25.60
2019-02-25T09:52:46.867Z,24.30
2019-02-25T09:55:16.815Z,24.60
2019-02-25T09:57:46.846Z,25.40
2019-02-25T10:00:16.914Z,24.50
2019-02-25T10:02:46.878Z,24.00
2019-02-25T10:05:16.697Z,24.50
2019-02-25T10:07:46.675Z,24.60
2019-02-25T10:10:16.557Z,24.00
2019-02-25T10:12:46.383Z,24.50
2019-02-25T10:15:16.642Z,24.70
2019-02-25T10:17:46.446Z,24.60
2019-02-25T10:20:16.421Z,24.30
2019-02-25T10:22:46.178Z,23.70
2019-02-25T10:25:16.124Z,23.40
2019-02-25T10:27:46.096Z,22.70
2019-02-25T10:30:16.908Z,21.40
2019-02-25T10:32:46.631Z,21.50
2019-02-25T10:35:16.540Z,21.40
2019-02-25T10:37:46.345Z,21.40
2019-02-25T10:40:19.031Z,21.80
2019-02-25T10:42:47.743Z,21.00
2019-02-25T10:45:17.590Z,21.20
2019-02-25T10:47:49.491Z,21.20
2019-02-25T10:50:18.959Z,21.40
2019-02-25T10:52:49.915Z,21.10
2019-02-25T10:55:23.922Z,21.20
2019-02-25T10:57:55.404Z,22.30
2019-02-25T11:00:25.251Z,23.90
2019-02-25T11:02:58.226Z,25.50
2019-02-25T11:05:30.365Z,27.60
2019-02-25T11:08:01.029Z,28.20
2019-02-25T11:10:36.070Z,28.50
2019-02-25T11:13:05.956Z,29.00
2019-02-25T11:15:37.528Z,27.80
2019-02-25T11:18:08.845Z,27.30
2019-02-25T11:20:38.622Z,27.20
2019-02-25T11:23:09.983Z,27.70
2019-02-25T11:25:39.952Z,27.30
2019-02-25T11:28:22.681Z,27.60
2019-02-25T11:30:43.163Z,27.20
2019-02-25T11:33:12.932Z,27.00
2019-02-25T11:35:43.320Z,27.40
2019-02-25T11:38:13.767Z,27.10
2019-02-25T11:40:43.578Z,27.50
2019-02-25T11:43:15.894Z,27.40
2019-02-25T11:45:44.850Z,27.50
2019-02-25T11:48:14.822Z,27.90
2019-02-25T11:50:45.055Z,27.80
2019-02-25T11:53:14.822Z,27.90
2019-02-25T11:55:44.690Z,28.10
2019-02-25T11:58:14.422Z,28.30
2019-02-25T12:00:44.230Z,28.50
2019-02-25T12:03:14.032Z,28.60
2019-02-25T12:05:44.026Z,28.90
2019-02-25T12:08:13.963Z,29.30
2019-02-25T12:10:44.676Z,29.60
2019-02-25T12:13:14.526Z,29.60
2019-02-25T12:15:44.768Z,29.60
2019-02-25T12:18:14.465Z,28.90
2019-02-25T12:20:44.198Z,28.50
2019-02-25T12:23:15.154Z,28.40
2019-02-25T12:25:44.884Z,28.10
2019-02-25T12:28:14.730Z,27.70
2019-02-25T12:30:44.508Z,27.80
2019-02-25T12:33:14.670Z,27.80
2019-02-25T12:35:44.617Z,27.90
2019-02-25T12:38:14.532Z,27.90
2019-02-25T12:40:44.457Z,27.80
2019-02-25T12:43:14.247Z,28.10
2019-02-25T12:45:45.040Z,28.10
2019-02-25T12:48:15.014Z,28.00
2019-02-25T12:50:44.867Z,28.10
2019-02-25T12:53:14.683Z,28.30
2019-02-25T12:55:44.514Z,28.90
2019-02-25T12:58:14.446Z,28.90
2019-02-25T13:00:44.295Z,28.50
2019-02-25T13:03:14.084Z,28.20
2019-02-25T13:05:43.943Z,28.00
2019-02-25T13:08:13.823Z,27.80
2019-02-25T13:10:43.528Z,27.60
2019-02-25T13:13:13.367Z,27.50
2019-02-25T13:15:55.211Z,27.40
2019-02-25T13:18:25.011Z,27.60
2019-02-25T13:20:54.850Z,27.70
2019-02-25T13:23:24.597Z,27.90
2019-02-25T13:25:54.566Z,27.80
2019-02-25T13:28:26.195Z,27.80
2019-02-25T13:30:56.195Z,27.70
2019-02-25T13:33:25.996Z,27.40
2019-02-25T13:35:57.100Z,27.50
2019-02-25T13:38:27.188Z,27.30
2019-02-25T13:40:57.220Z,27.40
2019-02-25T13:43:27.608Z,27.70
2019-02-25T13:45:59.216Z,27.50
2019-02-25T13:48:29.162Z,27.50
2019-02-25T13:50:59.242Z,27.50
2019-02-25T13:53:29.019Z,27.60
2019-02-25T13:55:59.015Z,27.90
2019-02-25T13:58:28.864Z,28.00
2019-02-25T14:00:58.691Z,28.50
2019-02-25T14:03:28.838Z,27.60
2019-02-25T14:05:58.622Z,27.60
2019-02-25T14:08:28.801Z,27.70
2019-02-25T14:10:58.847Z,27.90
2019-02-25T14:13:29.336Z,27.70
2019-02-25T14:16:00.313Z,27.60
2019-02-25T14:18:30.242Z,27.80
2019-02-25T14:21:00.101Z,28.10
2019-02-25T14:23:29.956Z,28.40
2019-02-25T14:25:59.842Z,28.70
2019-02-25T14:28:30.388Z,28.80
2019-02-25T14:31:00.174Z,28.20
2019-02-25T14:33:30.034Z,28.40
2019-02-25T14:36:00.103Z,28.60
2019-02-25T14:38:31.775Z,28.80
2019-02-25T14:41:01.895Z,28.70
2019-02-25T14:43:37.193Z,28.70
2019-02-25T14:46:07.623Z,28.80
2019-02-25T14:48:36.788Z,29.00
2019-02-25T14:51:08.753Z,29.10
2019-02-25T14:53:39.055Z,29.30
2019-02-25T14:56:09.375Z,29.80
2019-02-25T14:58:40.617Z,29.70
2019-02-25T15:01:11.414Z,29.40
2019-02-25T15:03:41.539Z,29.50
2019-02-25T15:06:11.746Z,29.50
2019-02-25T15:08:41.868Z,29.90
2019-02-25T15:11:13.042Z,30.00
2019-02-25T15:13:43.607Z,29.90
2019-02-25T15:16:13.683Z,29.80
2019-02-25T15:18:43.913Z,30.00
2019-02-25T15:21:15.928Z,30.00
2019-02-25T15:23:45.811Z,29.90
2019-02-25T15:26:17.340Z,30.00
2019-02-25T15:28:51.726Z,30.50
2019-02-25T15:31:19.660Z,30.90
2019-02-25T15:33:50.102Z,31.40
2019-02-25T15:36:20.518Z,31.60
2019-02-25T15:38:52.030Z,31.70
2019-02-25T15:41:22.142Z,31.70
2019-02-25T15:43:52.266Z,31.50
2019-02-25T15:46:24.185Z,31.40
2019-02-25T15:48:54.397Z,31.40
2019-02-25T15:51:24.562Z,31.30
2019-02-25T15:53:55.781Z,31.70
2019-02-25T15:56:26.463Z,31.80
2019-02-25T15:58:56.602Z,32.00
2019-02-25T16:01:26.863Z,32.30
2019-02-25T16:04:00.729Z,32.50
2019-02-25T16:06:31.365Z,32.90
2019-02-25T16:09:03.110Z,33.60
2019-02-25T16:11:34.913Z,34.00
2019-02-25T16:14:07.009Z,34.30
2019-02-25T16:16:37.427Z,35.00
2019-02-25T16:19:07.676Z,35.00
2019-02-25T16:21:40.787Z,35.90
2019-02-25T16:24:12.346Z,35.20
2019-02-25T16:26:42.895Z,35.30
2019-02-25T16:29:13.486Z,35.80
2019-02-25T16:31:43.646Z,36.00
2019-02-25T16:34:14.728Z,36.30
2019-02-25T16:36:49.669Z,36.90
2019-02-25T16:39:17.613Z,38.00
2019-02-25T16:41:47.943Z,37.70
2019-02-25T16:44:18.285Z,38.10
2019-02-25T16:46:50.611Z,38.20
2019-02-25T16:49:20.428Z,38.50
2019-02-25T16:51:51.462Z,38.30
2019-02-25T16:54:22.898Z,38.30
2019-02-25T16:57:14.245Z,38.60
2019-02-25T16:59:44.818Z,38.80
2019-02-25T17:02:15.101Z,39.20
2019-02-25T17:04:45.263Z,39.70
2019-02-25T17:07:16.146Z,40.00
2019-02-25T17:09:47.382Z,40.50
2019-02-25T17:12:17.755Z,41.00
2019-02-25T17:14:48.088Z,41.50
2019-02-25T17:17:18.152Z,42.30
2019-02-25T17:19:48.332Z,43.70
2019-02-25T17:22:18.752Z,45.10
2019-02-25T17:24:48.870Z,46.20
2019-02-25T17:27:19.348Z,47.10
2019-02-25T17:29:51.155Z,47.80
2019-02-25T17:32:22.868Z,47.40
2019-02-25T17:34:56.076Z,47.50
2019-02-25T17:37:26.744Z,47.60
2019-02-25T17:39:59.126Z,47.80
2019-02-25T17:42:31.271Z,48.10
2019-02-25T17:45:02.562Z,48.50
2019-02-25T17:47:33.218Z,48.50
2019-02-25T17:50:06.426Z,48.70
2019-02-25T17:52:38.745Z,49.00
2019-02-25T17:55:12.650Z,48.80
2019-02-25T17:57:42.981Z,48.90
2019-02-25T18:00:35.047Z,48.90
2019-02-25T18:03:04.746Z,49.00
2019-02-25T18:05:35.878Z,49.30
2019-02-25T18:08:08.117Z,49.60
2019-02-25T18:10:38.655Z,49.90
2019-02-25T18:13:10.947Z,50.10
2019-02-25T18:15:40.555Z,50.20
2019-02-25T18:18:14.080Z,50.20
2019-02-25T18:20:42.433Z,50.40
2019-02-25T18:23:12.954Z,50.30
2019-02-25T18:25:43.151Z,50.40
2019-02-25T18:28:15.128Z,50.70
2019-02-25T18:30:45.471Z,50.90
2019-02-25T18:33:17.391Z,51.10
2019-02-25T18:35:47.939Z,51.40
2019-02-25T18:38:18.154Z,51.70
2019-02-25T18:40:48.522Z,51.80
2019-02-25T18:43:20.005Z,51.70
2019-02-25T18:45:50.767Z,51.70
2019-02-25T18:48:21.512Z,51.90
2019-02-25T18:50:55.998Z,52.00
2019-02-25T18:53:25.049Z,52.30
2019-02-25T18:55:56.788Z,52.40
2019-02-25T18:58:28.071Z,52.60
2019-02-25T19:00:58.503Z,53.20
2019-02-25T19:03:29.029Z,53.60
2019-02-25T19:06:00.390Z,53.80
2019-02-25T19:08:31.795Z,54.00
2019-02-25T19:11:02.171Z,54.40
2019-02-25T19:13:32.422Z,54.10
2019-02-25T19:16:02.663Z,53.90
2019-02-25T19:18:34.690Z,53.70
2019-02-25T19:21:06.425Z,53.70
2019-02-25T19:23:37.701Z,53.50
2019-02-25T19:26:10.455Z,53.30
2019-02-25T19:28:44.051Z,53.40
2019-02-25T19:31:12.531Z,53.60
2019-02-25T19:33:42.674Z,53.80
2019-02-25T19:36:12.813Z,53.60
2019-02-25T19:38:44.127Z,53.30
2019-02-25T19:41:15.334Z,53.10
2019-02-25T19:43:46.630Z,53.20
2019-02-25T19:46:16.809Z,53.10
2019-02-25T19:48:47.985Z,53.10
2019-02-25T19:51:20.631Z,53.40
2019-02-25T19:53:51.763Z,53.70
2019-02-25T19:56:23.119Z,54.30
2019-02-25T19:58:53.283Z,54.60
2019-02-25T20:01:24.458Z,55.40
2019-02-25T20:03:54.599Z,54.70
2019-02-25T20:06:26.279Z,54.60
2019-02-25T20:08:58.193Z,54.60
2019-02-25T20:11:28.425Z,54.90
2019-02-25T20:14:01.527Z,55.00
2019-02-25T20:16:32.352Z,55.30
2019-02-25T20:19:04.574Z,55.40
2019-02-25T20:21:34.540Z,55.60
2019-02-25T20:24:04.931Z,55.90
2019-02-25T20:26:35.008Z,56.20
2019-02-25T20:29:06.285Z,56.50
2019-02-25T20:31:36.919Z,56.90
2019-02-25T20:34:07.074Z,57.20
2019-02-25T20:36:37.364Z,57.40
2019-02-25T20:39:08.909Z,57.80
2019-02-25T20:41:39.458Z,57.80
2019-02-25T20:44:09.579Z,57.90
2019-02-25T20:46:39.693Z,58.10
2019-02-25T20:49:09.801Z,58.30
2019-02-25T20:51:39.958Z,58.50
2019-02-25T20:54:11.718Z,58.50
2019-02-25T20:56:41.962Z,58.20
2019-02-25T20:59:12.375Z,58.00
2019-02-25T21:01:44.648Z,57.80
2019-02-25T21:04:15.697Z,57.70
2019-02-25T21:06:46.995Z,58.20
2019-02-25T21:09:17.112Z,57.60
2019-02-25T21:11:47.370Z,57.90
2019-02-25T21:14:17.511Z,58.20
2019-02-25T21:16:47.692Z,58.50
2019-02-25T21:19:20.003Z,58.70
2019-02-25T21:21:52.935Z,59.00
2019-02-25T21:24:22.090Z,59.20
2019-02-25T21:26:55.210Z,59.40
2019-02-25T21:29:26.902Z,59.70
2019-02-25T21:31:56.982Z,60.20
2019-02-25T21:34:29.142Z,60.70
2019-02-25T21:37:00.732Z,61.40
2019-02-25T21:39:31.971Z,61.50
2019-02-25T21:42:02.809Z,61.60
2019-02-25T21:44:32.838Z,61.80
2019-02-25T21:47:03.645Z,61.70
2019-02-25T21:49:36.490Z,61.90
2019-02-25T21:52:08.309Z,62.10
2019-02-25T21:54:38.342Z,62.70
2019-02-25T21:57:09.738Z,62.20
2019-02-25T21:59:41.059Z,62.70
2019-02-25T22:02:11.432Z,63.20
2019-02-25T22:04:43.068Z,63.50
2019-02-25T22:07:17.089Z,63.70
2019-02-25T22:09:46.518Z,63.90
2019-02-25T22:12:16.598Z,64.40
2019-02-25T22:14:47.792Z,64.70
2019-02-25T22:17:20.641Z,65.00
2019-02-25T22:19:50.487Z,65.20
2019-02-25T22:22:24.130Z,65.50
2019-02-25T22:24:52.361Z,65.70
2019-02-25T22:27:23.026Z,66.00
2019-02-25T22:29:53.131Z,66.00
2019-02-25T22:32:23.295Z,66.10
2019-02-25T22:34:53.322Z,66.20
2019-02-25T22:37:25.022Z,66.40
2019-02-25T22:39:56.139Z,66.50
2019-02-25T22:42:26.976Z,66.60
2019-02-25T22:44:57.999Z,66.60
2019-02-25T22:47:28.028Z,66.90
2019-02-25T22:49:58.027Z,66.60
2019-02-25T22:52:29.246Z,66.80
2019-02-25T22:54:59.851Z,67.20
2019-02-25T22:57:29.991Z,68.50
2019-02-25T22:59:59.988Z,67.80
2019-02-25T23:02:30.279Z,68.00
2019-02-25T23:05:00.295Z,68.20
2019-02-25T23:07:30.399Z,68.50
2019-02-25T23:10:00.535Z,68.80
2019-02-25T23:12:31.115Z,69.00
2019-02-25T23:15:05.539Z,69.20
2019-02-25T23:17:35.716Z,69.40
2019-02-25T23:20:09.370Z,69.60
2019-02-25T23:22:40.767Z,69.60
2019-02-25T23:25:10.772Z,69.60
2019-02-25T23:27:40.798Z,69.90
2019-02-25T23:30:11.024Z,70.10
2019-02-25T23:32:41.075Z,70.10
2019-02-25T23:35:13.656Z,70.40
2019-02-25T23:37:45.091Z,70.60
2019-02-25T23:40:16.649Z,70.60
2019-02-25T23:42:48.581Z,70.80
2019-02-25T23:45:20.457Z,70.90
2019-02-25T23:47:50.035Z,71.10
2019-02-25T23:50:20.131Z,71.40
2019-02-25T23:52:50.238Z,72.30
2019-02-25T23:55:23.845Z,71.30
2019-02-25T23:57:52.165Z,72.20
